CYYY

Mont Joli Airport

Mont-Joli, Quebec, Canada
METAR CYYY 170000Z 29010G17KT 15SM BKN022 M13/M17 A2992 RMK SC6 SLP138
Observed Flight Rules
Dec-17 @ 00:00 UTC (28 minutes ago) Marginal Visual Flight Rules
Wind Visibility Clouds
290° at 10 knots
 Gusting to 17 knots
15 miles
  • Broken at 2,200' AGL
Temperatures Readings
Current -13°C / 9°F
Dewpoint -17°C / 1°F
Humidity 72%
Altimeter 29.92" Hg
Pressure 1013.8 hPa
Elevation 52
METAR CYYY 170000Z 29010G17KT 15SM BKN022 M13/M17 A2992 RMK SC6 SLP138
Observed Flight Rules
Dec-17 @ 00:00 UTC
(28 minutes ago)
MVFR
Wind Visibility
290° at 10 knots
 Gusting to 17 knots
15 miles
Clouds
  • Broken at 2,200' AGL
Temperature Dewpoint
-13°C / 9°F -17°C / 1°F
Humidity Altimeter Pressure
72% 29.92" Hg 1013.8 hPa